Terminal Aerodrome Forecast
Issued by NWS Billings, MT

Home | Current Version | Previous Version | Text Only | Print | Product List | Glossary Off
Versions: 1 2 3 4 5 6 7 8 9 10 11 12 13 14 15

000
FTUS45 KBYZ 182320
TAFMLS
TAF
KMLS 182320Z 1900/1924 VRB05KT P6SM BKN110
     FM190800 VRB06KT P6SM VCSH SCT070 OVC100
     FM191300 33010G20KT P6SM -SHRA BKN050
     FM191700 31015G30KT P6SM -SHRA BKN050
     FM192000 29011KT P6SM VCSH BKN050=

USA.gov is the U.S. government's official web portal to all federal, state and local government web resources and services.